Time;durP1;ratioP1;P1;durP2;ratioP2;P2;SDS_P1;SDS_P2;PMS_P1;PMS_P2;Temp;Humidity;BMP_temperature;BMP_pressure;BME280_temperature;BME280_humidity;BME280_pressure;Samples;Min_cycle;Max_cycle;Signal;HPM_P1;HPM_P2
2023/09/24 00:01:02;;;;;;;11.10;5.47;;;;;;;-145.18;100.00;46650.63;5013044;28;20489;-68
2023/09/24 00:03:28;;;;;;;10.83;5.73;;;;;;;-145.18;100.00;46650.63;5008425;28;20101;-68
2023/09/24 00:05:53;;;;;;;11.03;5.60;;;;;;;-145.18;100.00;46646.72;5000725;28;20061;-64
2023/09/24 00:08:19;;;;;;;10.70;6.47;;;;;;;-145.18;100.00;46642.81;5012619;28;20084;-63
2023/09/24 00:10:57;;;;;;;11.57;6.17;;;;;;;-145.18;100.00;46646.72;5012681;28;20545;-64
2023/09/24 00:13:23;;;;;;;11.90;6.33;;;;;;;-145.18;100.00;46646.72;5012323;28;20500;-64
2023/09/24 00:15:52;;;;;;;13.20;6.20;;;;;;;-145.18;100.00;46646.72;5012762;28;20022;-63
2023/09/24 00:18:18;;;;;;;14.37;5.87;;;;;;;-145.18;100.00;46648.69;5011060;28;20120;-64
2023/09/24 00:20:44;;;;;;;10.73;6.10;;;;;;;-145.18;100.00;46642.81;5012572;28;20026;-63
2023/09/24 00:23:10;;;;;;;9.83;6.10;;;;;;;-145.18;100.00;46644.78;5002752;28;20335;-63
2023/09/24 00:25:36;;;;;;;12.73;6.00;;;;;;;-145.18;100.00;46652.59;5010296;28;20026;-63
2023/09/24 00:28:03;;;;;;;12.43;5.90;;;;;;;-145.18;100.00;46644.78;5008136;28;20137;-64
2023/09/24 00:30:28;;;;;;;13.57;5.37;;;;;;;-145.18;100.00;46646.72;5010819;28;20538;-63
2023/09/24 00:32:54;;;;;;;8.60;4.63;;;;;;;-145.18;100.00;46646.72;5011981;28;20076;-64
2023/09/24 00:35:19;;;;;;;13.60;5.50;;;;;;;-145.18;100.00;46644.78;5009885;28;20109;-63
2023/09/24 00:37:45;;;;;;;12.80;5.37;;;;;;;-145.18;100.00;46646.72;5011966;28;20030;-63
2023/09/24 00:40:11;;;;;;;12.07;4.97;;;;;;;-145.18;100.00;46648.69;5003057;28;20034;-63
2023/09/24 00:42:37;;;;;;;7.97;4.80;;;;;;;-145.18;100.00;46648.69;5010960;28;20057;-63
2023/09/24 00:45:06;;;;;;;7.43;4.80;;;;;;;-145.18;100.00;46648.69;4998713;28;20101;-64
2023/09/24 00:47:32;;;;;;;9.90;4.63;;;;;;;-145.18;100.00;46650.63;5009401;28;20029;-64
2023/09/24 00:49:58;;;;;;;9.43;4.77;;;;;;;-145.18;100.00;46648.69;5012008;28;20034;-63
2023/09/24 00:52:26;;;;;;;7.60;4.83;;;;;;;-145.18;100.00;46644.78;5007375;28;20026;-63
2023/09/24 00:54:52;;;;;;;12.13;4.23;;;;;;;-145.18;100.00;46650.63;5012044;28;20038;-63
2023/09/24 00:57:18;;;;;;;7.47;4.63;;;;;;;-145.18;100.00;46646.72;5012418;28;20026;-63
2023/09/24 00:59:46;;;;;;;9.00;4.60;;;;;;;-145.18;100.00;46648.69;5011470;28;20399;-64
2023/09/24 01:02:13;;;;;;;6.97;3.80;;;;;;;-145.18;100.00;46648.69;5011814;28;20033;-64
2023/09/24 01:04:39;;;;;;;9.07;4.00;;;;;;;-145.18;100.00;46648.69;5012284;28;20049;-64
2023/09/24 01:07:05;;;;;;;8.87;4.73;;;;;;;-145.18;100.00;46646.72;5003187;28;20088;-64
2023/09/24 01:09:30;;;;;;;6.47;3.83;;;;;;;-145.18;100.00;46652.59;5001073;28;20056;-63
2023/09/24 01:11:57;;;;;;;11.03;4.80;;;;;;;-145.18;100.00;46648.69;5006799;28;20033;-64
2023/09/24 01:14:23;;;;;;;7.27;4.20;;;;;;;-145.18;100.00;46652.59;5011478;28;20026;-64
2023/09/24 01:16:49;;;;;;;15.27;5.20;;;;;;;-145.18;100.00;46650.63;5012395;28;20026;-68
2023/09/24 01:19:14;;;;;;;6.70;3.97;;;;;;;-145.18;100.00;46648.69;5011698;28;20040;-68
2023/09/24 01:21:41;;;;;;;7.13;4.17;;;;;;;-145.18;100.00;46650.63;5012252;28;20030;-68
2023/09/24 01:24:07;;;;;;;10.03;4.80;;;;;;;-145.18;100.00;46650.63;5008090;28;20116;-68
2023/09/24 01:26:34;;;;;;;9.10;4.63;;;;;;;-145.18;100.00;46650.63;5010917;28;20034;-68
2023/09/24 01:29:00;;;;;;;9.87;4.50;;;;;;;-145.18;100.00;46650.63;5011911;28;20057;-68
2023/09/24 01:31:26;;;;;;;7.93;4.23;;;;;;;-145.18;100.00;46648.69;5010129;28;20093;-68
2023/09/24 01:33:52;;;;;;;8.27;4.30;;;;;;;-145.18;100.00;46654.53;5013644;28;20038;-68
2023/09/24 01:36:19;;;;;;;13.57;4.40;;;;;;;-145.18;100.00;46650.63;5015924;28;20509;-69
2023/09/24 01:38:45;;;;;;;12.23;4.50;;;;;;;-145.18;100.00;46648.69;5014879;28;20087;-68
2023/09/24 01:41:11;;;;;;;10.53;4.50;;;;;;;-145.18;100.00;46650.63;5015634;28;20032;-68
2023/09/24 01:43:43;;;;;;;11.33;4.20;;;;;;;-145.18;100.00;46644.78;5011139;28;20034;-68
2023/09/24 01:46:10;;;;;;;8.90;3.80;;;;;;;-145.18;100.00;46652.59;5005289;28;20203;-68
2023/09/24 01:48:36;;;;;;;11.00;4.87;;;;;;;-145.18;100.00;46650.63;5015648;28;20491;-68
2023/09/24 01:51:08;;;;;;;12.23;5.10;;;;;;;-145.18;100.00;46650.63;5015471;28;20115;-68
2023/09/24 01:53:35;;;;;;;10.87;4.13;;;;;;;-145.18;100.00;46648.69;5015040;28;20045;-68
2023/09/24 01:56:02;;;;;;;9.70;5.07;;;;;;;-145.18;100.00;46648.69;5013817;28;20025;-68
2023/09/24 01:58:27;;;;;;;6.83;4.03;;;;;;;-145.18;100.00;46648.69;5004764;28;20033;-68
2023/09/24 02:00:52;;;;;;;5.93;3.90;;;;;;;-145.18;100.00;46650.63;5013905;28;20068;-68
2023/09/24 02:03:18;;;;;;;5.97;4.43;;;;;;;-145.18;100.00;46652.59;5014085;28;20030;-68
2023/09/24 02:05:44;;;;;;;10.50;4.30;;;;;;;-145.18;100.00;46656.50;5002248;28;20038;-68
2023/09/24 02:08:10;;;;;;;6.30;4.50;;;;;;;-145.18;100.00;46654.53;5015291;28;20091;-68
2023/09/24 02:10:40;;;;;;;10.93;4.80;;;;;;;-145.18;100.00;46656.50;5003052;28;20038;-68
2023/09/24 02:13:07;;;;;;;6.90;4.10;;;;;;;-145.18;100.00;46650.63;5011681;28;20569;-68
2023/09/24 02:15:33;;;;;;;10.33;3.87;;;;;;;-145.18;100.00;46652.59;5014688;28;20674;-68
2023/09/24 02:17:59;;;;;;;10.73;4.10;;;;;;;-145.18;100.00;46656.50;5015345;28;20034;-68
2023/09/24 02:20:33;;;;;;;11.47;4.63;;;;;;;-145.18;100.00;46652.59;5014825;28;20044;-69
2023/09/24 02:23:00;;;;;;;10.80;4.97;;;;;;;-145.18;100.00;46650.63;5014989;28;20040;-68
2023/09/24 02:25:28;;;;;;;9.03;5.20;;;;;;;-145.18;100.00;46652.59;5014913;28;20097;-68
2023/09/24 02:27:55;;;;;;;11.27;4.93;;;;;;;-145.18;100.00;46654.53;5014955;28;20041;-68
2023/09/24 02:30:21;;;;;;;11.87;5.17;;;;;;;-145.18;100.00;46652.59;5014641;28;20107;-68
2023/09/24 02:32:47;;;;;;;9.03;5.37;;;;;;;-145.18;100.00;46656.50;5014191;28;20038;-68
2023/09/24 02:35:14;;;;;;;8.77;4.97;;;;;;;-145.18;100.00;46650.63;5011782;28;20084;-68
2023/09/24 02:37:45;;;;;;;9.70;5.13;;;;;;;-145.18;100.00;46652.59;5006908;28;20393;-68
2023/09/24 02:40:21;;;;;;;9.43;4.77;;;;;;;-145.18;100.00;46652.59;5014638;28;20371;-68
2023/09/24 02:42:47;;;;;;;14.60;7.25;;;;;;;-145.18;100.00;46652.59;5014253;28;20479;-68
2023/09/24 02:45:15;;;;;;;10.33;5.23;;;;;;;-145.18;100.00;46654.53;4998797;28;20038;-68
2023/09/24 02:47:42;;;;;;;11.53;4.93;;;;;;;-145.18;100.00;46650.63;5007457;28;20026;-68
2023/09/24 02:50:13;;;;;;;7.00;4.27;;;;;;;-145.18;100.00;46648.69;5014041;28;20490;-68
2023/09/24 02:52:48;;;;;;;9.53;4.93;;;;;;;-145.18;100.00;46646.72;5014384;28;20068;-68
2023/09/24 02:55:15;;;;;;;9.15;5.47;;;;;;;-145.18;100.00;46648.69;5005950;28;20049;-68
2023/09/24 02:57:41;;;;;;;10.73;5.00;;;;;;;-145.18;100.00;46652.59;5013347;28;20042;-68
2023/09/24 03:00:19;;;;;;;10.00;5.40;;;;;;;-145.18;100.00;46652.59;5014478;28;20386;-68
2023/09/24 03:02:48;;;;;;;7.87;5.20;;;;;;;-145.18;100.00;46652.59;5014562;28;20040;-68
2023/09/24 03:05:20;;;;;;;9.40;5.20;;;;;;;-145.18;100.00;46654.53;5012113;28;20030;-68
2023/09/24 03:07:49;;;;;;;8.40;5.53;;;;;;;-145.18;100.00;46652.59;5012634;28;20049;-68
2023/09/24 03:10:16;;;;;;;10.33;4.90;;;;;;;-145.18;100.00;46650.63;5006422;28;20502;-68
2023/09/24 03:12:41;;;;;;;11.00;5.30;;;;;;;-145.18;100.00;46650.63;5014080;28;20107;-68
2023/09/24 03:15:10;;;;;;;12.60;5.80;;;;;;;-145.18;100.00;46656.50;5013495;28;20069;-67
2023/09/24 03:17:36;;;;;;;9.13;5.57;;;;;;;-145.18;100.00;46650.63;5009353;28;20117;-68
2023/09/24 03:20:05;;;;;;;10.00;5.40;;;;;;;-145.18;100.00;46656.50;5026656;28;20038;-68
2023/09/24 03:22:30;;;;;;;11.57;5.13;;;;;;;-145.18;100.00;46650.63;5013315;28;20029;-68
2023/09/24 03:24:57;;;;;;;16.77;5.93;;;;;;;-145.18;100.00;46650.63;5013529;28;20101;-68
2023/09/24 03:27:22;;;;;;;9.40;5.87;;;;;;;-145.18;100.00;46646.72;5013773;28;20494;-68
2023/09/24 03:29:48;;;;;;;10.73;6.00;;;;;;;-145.18;100.00;46654.53;5000981;28;20030;-68
2023/09/24 03:32:14;;;;;;;12.80;6.67;;;;;;;-145.18;100.00;46646.72;5013786;28;20041;-68
2023/09/24 03:34:40;;;;;;;14.43;6.60;;;;;;;-145.18;100.00;46650.63;5012670;28;20026;-68
2023/09/24 03:37:09;;;;;;;13.63;6.00;;;;;;;-145.18;100.00;46648.69;5013772;28;20025;-64
2023/09/24 03:39:34;;;;;;;9.03;5.57;;;;;;;-145.18;100.00;46648.69;5001523;28;20498;-64
2023/09/24 03:42:00;;;;;;;13.30;6.87;;;;;;;-145.18;100.00;46650.63;5013734;28;20025;-64
2023/09/24 03:44:25;;;;;;;11.13;6.17;;;;;;;-145.18;100.00;46648.69;5013343;28;20141;-64
2023/09/24 03:46:50;;;;;;;9.83;6.17;;;;;;;-145.18;100.00;46652.59;5004561;28;20519;-64
2023/09/24 03:49:16;;;;;;;11.63;5.70;;;;;;;-145.18;100.00;46646.72;5013069;28;20447;-64
2023/09/24 03:51:41;;;;;;;13.00;6.47;;;;;;;-145.18;100.00;46644.78;5012979;28;20050;-64
2023/09/24 03:54:07;;;;;;;13.97;5.93;;;;;;;-145.18;100.00;46646.72;5013491;28;20033;-64
2023/09/24 03:56:32;;;;;;;9.93;5.67;;;;;;;-145.18;100.00;46648.69;5008172;28;20405;-64
2023/09/24 03:58:57;;;;;;;9.90;5.70;;;;;;;-145.18;100.00;46646.72;5012556;28;20030;-64
2023/09/24 04:01:23;;;;;;;12.73;5.70;;;;;;;-145.18;100.00;46650.63;5010931;28;20512;-64
2023/09/24 04:03:49;;;;;;;6.27;5.33;;;;;;;-145.18;100.00;46646.72;5011723;28;20104;-64
2023/09/24 04:06:16;;;;;;;11.50;5.77;;;;;;;-145.18;100.00;46644.78;5012672;28;20101;-64
2023/09/24 04:08:42;;;;;;;14.07;6.30;;;;;;;-145.18;100.00;46646.72;5011780;28;20038;-64
2023/09/24 04:11:09;;;;;;;13.77;6.03;;;;;;;-145.18;100.00;46646.72;5011348;28;20037;-64
2023/09/24 04:13:36;;;;;;;8.53;5.73;;;;;;;-145.18;100.00;46644.78;5012764;28;20084;-64
2023/09/24 04:16:14;;;;;;;13.17;6.03;;;;;;;-145.18;100.00;46650.63;5012948;28;20029;-64
2023/09/24 04:18:43;;;;;;;10.33;5.43;;;;;;;-145.18;100.00;46646.72;5012869;28;20037;-64
2023/09/24 04:21:18;;;;;;;11.30;5.23;;;;;;;-145.18;100.00;46646.72;5008154;28;20399;-64
2023/09/24 04:23:45;;;;;;;8.10;5.05;;;;;;;-145.18;100.00;46646.72;5011646;28;20022;-64
2023/09/24 04:26:21;;;;;;;8.70;5.27;;;;;;;-145.18;100.00;46650.63;5009600;28;20157;-64
2023/09/24 04:28:48;;;;;;;8.60;5.30;;;;;;;-145.18;100.00;46650.63;5005295;28;20045;-64
2023/09/24 04:31:14;;;;;;;10.20;5.10;;;;;;;-145.18;100.00;46648.69;5012438;28;20076;-64
2023/09/24 04:33:41;;;;;;;8.50;4.53;;;;;;;-145.18;100.00;46650.63;5010852;28;20069;-64
2023/09/24 04:36:07;;;;;;;13.40;5.60;;;;;;;-145.18;100.00;46648.69;5007327;28;20034;-64
2023/09/24 04:38:32;;;;;;;9.33;4.97;;;;;;;-145.18;100.00;46646.72;5012630;28;20032;-64
2023/09/24 04:40:58;;;;;;;10.60;4.90;;;;;;;-145.18;100.00;46654.53;5012146;28;20355;-64
2023/09/24 04:43:23;;;;;;;9.87;4.97;;;;;;;-145.18;100.00;46652.59;5004584;28;20152;-64
2023/09/24 04:45:49;;;;;;;9.00;5.60;;;;;;;-145.18;100.00;46648.69;5011689;28;20156;-68
2023/09/24 04:48:14;;;;;;;9.37;5.23;;;;;;;-145.18;100.00;46650.63;5011556;28;20034;-68
2023/09/24 04:50:40;;;;;;;9.63;5.57;;;;;;;-145.18;100.00;46652.59;5011428;28;20026;-68
2023/09/24 04:53:06;;;;;;;8.23;4.93;;;;;;;-145.18;100.00;46648.69;5009986;28;20048;-68
2023/09/24 04:55:32;;;;;;;17.07;5.87;;;;;;;-145.18;100.00;46646.72;5009171;28;20332;-68
2023/09/24 04:57:58;;;;;;;7.50;4.80;;;;;;;-145.18;100.00;46650.63;5000930;28;20022;-68
2023/09/24 05:00:23;;;;;;;12.10;4.70;;;;;;;-145.18;100.00;46652.59;5011247;28;20037;-68
2023/09/24 05:02:49;;;;;;;10.27;4.50;;;;;;;-145.18;100.00;46648.69;5011267;28;20101;-68
2023/09/24 05:05:15;;;;;;;11.80;4.67;;;;;;;-145.18;100.00;46648.69;5010272;28;20084;-68
2023/09/24 05:07:40;;;;;;;12.43;5.17;;;;;;;-145.18;100.00;46650.63;5008694;28;20138;-68
2023/09/24 05:10:07;;;;;;;11.73;4.90;;;;;;;-145.18;100.00;46644.78;5008587;28;20421;-64
2023/09/24 05:12:33;;;;;;;7.83;4.63;;;;;;;-145.18;100.00;46644.78;5011896;28;20494;-64
2023/09/24 05:14:58;;;;;;;10.83;5.53;;;;;;;-145.18;100.00;46642.81;5011778;28;20294;-64
2023/09/24 05:17:23;;;;;;;7.70;4.63;;;;;;;-145.18;100.00;46644.78;5006786;28;20041;-64
2023/09/24 05:19:49;;;;;;;10.97;4.70;;;;;;;-145.18;100.00;46648.69;5005231;28;20110;-64
2023/09/24 05:22:14;;;;;;;7.93;5.30;;;;;;;-145.18;100.00;46648.69;5011506;28;20038;-64
2023/09/24 05:24:39;;;;;;;10.40;5.03;;;;;;;-145.18;100.00;46648.69;4997182;28;20034;-64
2023/09/24 05:27:05;;;;;;;8.63;5.00;;;;;;;-145.18;100.00;46648.69;5007684;28;20394;-64
2023/09/24 05:29:30;;;;;;;8.03;4.67;;;;;;;-145.18;100.00;46642.81;5010220;28;20064;-64
2023/09/24 05:31:56;;;;;;;8.30;4.47;;;;;;;-145.18;100.00;46652.59;5008592;28;20046;-64
2023/09/24 05:34:21;;;;;;;8.50;4.80;;;;;;;-145.18;100.00;46650.63;5008070;28;20041;-64
2023/09/24 05:36:49;;;;;;;9.63;5.07;;;;;;;-145.18;100.00;46648.69;5010103;28;20026;-64
2023/09/24 05:39:15;;;;;;;10.17;4.50;;;;;;;-145.18;100.00;46652.59;5009626;28;20056;-64
2023/09/24 05:41:40;;;;;;;11.60;5.20;;;;;;;-145.18;100.00;46652.59;5011339;28;20033;-64
2023/09/24 05:44:06;;;;;;;8.70;4.40;;;;;;;-145.18;100.00;46648.69;5011626;28;20034;-65
2023/09/24 05:46:31;;;;;;;11.80;5.00;;;;;;;-145.18;100.00;46652.59;5010196;28;20072;-64
2023/09/24 05:48:58;;;;;;;7.03;4.63;;;;;;;-145.18;100.00;46644.78;5011762;28;20465;-64
2023/09/24 05:51:24;;;;;;;7.97;4.40;;;;;;;-145.18;100.00;46646.72;5011654;28;20026;-64
2023/09/24 05:53:51;;;;;;;7.80;4.13;;;;;;;-145.18;100.00;46648.69;5008438;28;20041;-63
2023/09/24 05:56:17;;;;;;;9.53;4.80;;;;;;;-145.18;100.00;46648.69;5010298;28;20477;-64
2023/09/24 05:58:42;;;;;;;12.23;4.63;;;;;;;-145.18;100.00;46646.72;5011162;28;20121;-64
2023/09/24 06:01:15;;;;;;;10.70;4.93;;;;;;;-145.18;100.00;46648.69;5000966;28;20041;-64
2023/09/24 06:03:41;;;;;;;7.77;4.63;;;;;;;-145.18;100.00;46646.72;5010724;28;20030;-64
2023/09/24 06:06:09;;;;;;;7.43;4.70;;;;;;;-145.18;100.00;46648.69;5009492;28;20267;-64
2023/09/24 06:08:36;;;;;;;8.70;5.20;;;;;;;-145.18;100.00;46646.72;5011795;28;20041;-64
2023/09/24 06:11:02;;;;;;;9.90;5.27;;;;;;;-145.18;100.00;46650.63;5010972;28;20057;-64
2023/09/24 06:13:27;;;;;;;14.77;4.77;;;;;;;-145.18;100.00;46642.81;5011882;28;20473;-64
2023/09/24 06:16:02;;;;;;;8.83;4.80;;;;;;;-145.18;100.00;46644.78;5010108;28;20029;-64
2023/09/24 06:18:27;;;;;;;7.97;4.37;;;;;;;-145.18;100.00;46640.88;5009507;28;20065;-64
2023/09/24 06:20:53;;;;;;;12.87;4.90;;;;;;;-145.18;100.00;46646.72;5013003;28;20053;-64
2023/09/24 06:23:19;;;;;;;10.30;5.07;;;;;;;-145.18;100.00;46640.88;5014193;28;20117;-64
2023/09/24 06:25:45;;;;;;;11.10;5.20;;;;;;;-145.18;100.00;46644.78;5015110;28;20022;-64
2023/09/24 06:28:10;;;;;;;9.00;4.87;;;;;;;-145.18;100.00;46642.81;5014799;28;20037;-64
2023/09/24 06:30:36;;;;;;;11.20;4.87;;;;;;;-145.18;100.00;46644.78;5007646;28;20050;-64
2023/09/24 06:33:04;;;;;;;10.47;4.63;;;;;;;-145.18;100.00;46638.91;5005932;28;20041;-64
2023/09/24 06:35:29;;;;;;;7.10;4.57;;;;;;;-145.18;100.00;46646.72;4998238;28;20283;-64
2023/09/24 06:37:55;;;;;;;14.00;4.97;;;;;;;-145.18;100.00;46640.88;5012975;28;20037;-64
2023/09/24 06:40:20;;;;;;;11.93;4.87;;;;;;;-145.18;100.00;46642.81;5004084;28;20030;-64
2023/09/24 06:42:45;;;;;;;9.10;4.80;;;;;;;-145.18;100.00;46638.91;5007775;28;20030;-64
2023/09/24 06:45:11;;;;;;;6.63;4.50;;;;;;;-145.18;100.00;46640.88;5003024;28;20095;-64
2023/09/24 06:47:37;;;;;;;11.43;4.50;;;;;;;-145.18;100.00;46638.91;5004954;28;20108;-64
2023/09/24 06:50:02;;;;;;;8.83;4.43;;;;;;;-145.18;100.00;46636.94;5014317;28;20033;-64
2023/09/24 06:52:30;;;;;;;11.17;4.27;;;;;;;-145.18;100.00;46636.94;5013795;28;20401;-64
2023/09/24 06:54:56;;;;;;;12.70;4.60;;;;;;;-145.18;100.00;46636.94;5012935;28;20029;-64
2023/09/24 06:57:21;;;;;;;9.50;4.63;;;;;;;-145.18;100.00;46633.06;5014587;28;20030;-64
2023/09/24 06:59:47;;;;;;;8.40;4.40;;;;;;;-145.18;100.00;46635.00;5005725;28;20121;-64
2023/09/24 07:02:15;;;;;;;11.30;5.20;;;;;;;-145.18;100.00;46636.94;5012019;28;20571;-64
2023/09/24 07:04:40;;;;;;;10.67;6.03;;;;;;;-145.18;100.00;46638.91;5014009;28;20037;-67
2023/09/24 07:07:07;;;;;;;12.47;5.40;;;;;;;-145.18;100.00;46633.06;5013323;28;20030;-68
2023/09/24 07:09:33;;;;;;;11.30;4.70;;;;;;;-145.18;100.00;46633.06;5014477;28;20030;-67
2023/09/24 07:11:58;;;;;;;9.37;5.27;;;;;;;-145.18;100.00;46635.00;5013984;28;20042;-67
2023/09/24 07:14:24;;;;;;;8.83;4.77;;;;;;;-145.18;100.00;46627.19;5014034;28;20046;-68
2023/09/24 07:16:49;;;;;;;10.10;5.23;;;;;;;-145.18;100.00;46635.00;5013291;28;20108;-68
2023/09/24 07:19:15;;;;;;;13.50;5.50;;;;;;;-145.18;100.00;46635.00;5014254;28;20041;-68
2023/09/24 07:21:40;;;;;;;14.60;5.73;;;;;;;-145.18;100.00;46625.22;5014176;28;20544;-67
2023/09/24 07:24:06;;;;;;;10.30;5.70;;;;;;;-145.18;100.00;46631.09;5013746;28;20383;-68
2023/09/24 07:26:31;;;;;;;11.17;5.07;;;;;;;-145.18;100.00;46635.00;5013159;28;20112;-68
2023/09/24 07:28:57;;;;;;;9.20;5.10;;;;;;;-145.18;100.00;46635.00;5013947;28;20037;-68
2023/09/24 07:31:25;;;;;;;10.27;4.80;;;;;;;-145.18;100.00;46631.09;5013420;28;20417;-68
2023/09/24 07:33:53;;;;;;;8.33;4.67;;;;;;;-145.18;100.00;46635.00;5012229;28;20080;-68
2023/09/24 07:36:19;;;;;;;16.53;5.20;;;;;;;-145.18;100.00;46635.00;5011676;28;20034;-67
2023/09/24 07:38:45;;;;;;;8.30;4.60;;;;;;;-145.18;100.00;46638.91;5013069;28;20049;-68
2023/09/24 07:41:11;;;;;;;9.43;4.47;;;;;;;-145.18;100.00;46638.91;5013279;28;20033;-68
2023/09/24 07:43:38;;;;;;;11.80;4.20;;;;;;;-145.18;100.00;46638.91;5009811;28;20462;-68
2023/09/24 07:46:05;;;;;;;10.33;4.80;;;;;;;-145.18;100.00;46638.91;5013344;28;20048;-68
2023/09/24 07:48:31;;;;;;;10.10;4.10;;;;;;;-145.18;100.00;46642.81;5013099;28;20111;-68
2023/09/24 07:50:56;;;;;;;6.43;4.20;;;;;;;-145.18;100.00;46646.72;5002787;28;20085;-68
2023/09/24 07:53:22;;;;;;;9.63;4.40;;;;;;;-145.18;100.00;46644.78;5013289;28;20030;-68
2023/09/24 07:56:02;;;;;;;7.00;4.03;;;;;;;-145.18;100.00;46648.69;5013054;28;20025;-68
2023/09/24 07:58:30;;;;;;;9.80;4.30;;;;;;;-145.18;100.00;46652.59;5008322;28;20433;-68
2023/09/24 08:01:10;;;;;;;12.30;4.47;;;;;;;-145.18;100.00;46658.44;5008481;28;20439;-68
2023/09/24 08:03:37;;;;;;;7.43;3.77;;;;;;;-145.18;100.00;46654.53;5012600;28;20025;-68
2023/09/24 08:06:04;;;;;;;7.97;4.13;;;;;;;-145.18;100.00;46658.44;5009362;28;20745;-68
2023/09/24 08:08:30;;;;;;;6.97;3.47;;;;;;;-145.18;100.00;46658.44;5008512;28;20083;-68
2023/09/24 08:10:57;;;;;;;7.10;3.53;;;;;;;-145.18;100.00;46664.31;5011790;28;20056;-68
2023/09/24 08:13:22;;;;;;;11.20;3.50;;;;;;;-145.18;100.00;46664.31;5011052;28;20505;-68
2023/09/24 08:15:48;;;;;;;10.83;3.30;;;;;;;-145.18;100.00;46666.25;5008663;28;20050;-64
2023/09/24 08:18:15;;;;;;;10.13;3.33;;;;;;;-145.18;100.00;46666.25;5007768;28;20108;-65
2023/09/24 08:20:41;;;;;;;6.90;3.10;;;;;;;-145.18;100.00;46666.25;5012160;28;20037;-65
2023/09/24 08:23:07;;;;;;;8.97;3.07;;;;;;;-145.18;100.00;46670.16;5005845;28;20030;-64
2023/09/24 08:25:33;;;;;;;7.60;2.87;;;;;;;-145.18;100.00;46672.13;5012049;28;20108;-64
2023/09/24 08:27:58;;;;;;;7.63;2.93;;;;;;;-145.18;100.00;46676.03;5001335;28;20113;-65
2023/09/24 08:30:26;;;;;;;6.23;3.00;;;;;;;-145.18;100.00;46679.94;5011600;28;20511;-64
2023/09/24 08:32:52;;;;;;;5.80;2.67;;;;;;;-145.18;100.00;46677.97;5012396;28;20030;-65
2023/09/24 08:35:17;;;;;;;6.77;3.27;;;;;;;-145.18;100.00;46677.97;5010080;28;20076;-65
2023/09/24 08:37:44;;;;;;;8.47;3.10;;;;;;;-145.18;100.00;46677.97;5012408;28;20025;-65
2023/09/24 08:40:11;;;;;;;6.50;3.27;;;;;;;-145.18;100.00;46677.97;5003298;28;20034;-65
2023/09/24 08:42:37;;;;;;;11.20;3.13;;;;;;;-145.18;100.00;46677.97;5006907;28;20022;-64
2023/09/24 08:45:18;;;;;;;8.50;3.63;;;;;;;-145.18;100.00;46679.94;5009384;28;20056;-64
2023/09/24 08:47:45;;;;;;;8.43;3.10;;;;;;;-145.18;100.00;46677.97;5009565;28;20026;-65
2023/09/24 08:50:11;;;;;;;6.50;2.97;;;;;;;-145.18;100.00;46681.88;5012074;28;20490;-65
2023/09/24 08:52:39;;;;;;;5.67;2.70;;;;;;;-145.18;100.00;46687.75;5009200;28;20060;-64
2023/09/24 08:55:09;;;;;;;7.80;2.97;;;;;;;-145.18;100.00;46687.75;5011138;28;20150;-65
2023/09/24 08:57:39;;;;;;;12.33;2.87;;;;;;;-145.18;100.00;46685.78;5005176;28;20051;-64
2023/09/24 09:00:06;;;;;;;6.93;3.03;;;;;;;-145.18;100.00;46689.69;5011556;28;20041;-65
2023/09/24 09:02:34;;;;;;;6.40;2.83;;;;;;;-145.18;100.00;46691.66;5012020;28;20022;-64
2023/09/24 09:05:00;;;;;;;9.40;2.70;;;;;;;-145.18;100.00;46689.69;5007846;28;20030;-64
2023/09/24 09:07:25;;;;;;;6.00;2.80;;;;;;;-145.18;100.00;46693.59;5012350;28;20083;-64
2023/09/24 09:09:55;;;;;;;7.67;3.03;;;;;;;-145.18;100.00;46697.50;5007888;28;20526;-64
2023/09/24 09:12:22;;;;;;;7.50;2.90;;;;;;;-145.18;100.00;46693.59;5007833;28;20029;-65
2023/09/24 09:14:48;;;;;;;9.27;2.80;;;;;;;-145.18;100.00;46693.59;5005995;28;20037;-64
2023/09/24 09:17:13;;;;;;;7.70;3.23;;;;;;;-145.18;100.00;46695.56;5002403;28;20038;-64
2023/09/24 09:19:59;;;;;;;6.67;2.87;;;;;;;-145.18;100.00;46699.47;5010797;28;20585;-64
2023/09/24 09:22:29;;;;;;;7.60;3.00;;;;;;;-145.18;100.00;46693.59;5008538;28;20437;-64
2023/09/24 09:25:06;;;;;;;6.57;2.83;;;;;;;-145.18;100.00;46687.75;4995426;28;20107;-64
2023/09/24 09:27:36;;;;;;;9.83;2.87;;;;;;;-145.18;100.00;46685.78;5004388;28;20037;-64
2023/09/24 09:30:20;;;;;;;7.67;2.27;;;;;;;-145.18;100.00;46683.84;5007107;28;20046;-64
2023/09/24 09:32:47;;;;;;;7.33;2.93;;;;;;;-145.18;100.00;46662.34;5004279;28;20066;-64
2023/09/24 09:35:14;;;;;;;8.80;3.23;;;;;;;-145.18;100.00;46640.88;5010721;28;20037;-64
2023/09/24 09:37:41;;;;;;;9.20;3.67;;;;;;;-145.18;100.00;46609.59;5011513;28;20026;-64
2023/09/24 09:40:11;;;;;;;5.27;2.10;;;;;;;-145.18;100.00;46566.63;5007318;28;20034;-64
2023/09/24 09:42:38;;;;;;;6.03;1.83;;;;;;;-145.18;100.00;46568.59;5007833;28;20028;-64
2023/09/24 09:45:08;;;;;;;4.37;2.50;;;;;;;-145.18;100.00;46580.31;5003723;28;20026;-64
2023/09/24 09:47:38;;;;;;;4.87;1.77;;;;;;;-145.18;100.00;46578.34;5003025;28;20478;-64
2023/09/24 09:50:04;;;;;;;5.63;1.83;;;;;;;-145.18;100.00;46586.16;5011372;28;20552;-64
2023/09/24 09:52:38;;;;;;;3.50;2.20;;;;;;;-145.18;100.00;46586.16;5011175;28;20033;-64
2023/09/24 09:55:06;;;;;;;5.03;1.60;;;;;;;-145.18;100.00;46586.16;5001655;28;20061;-64
2023/09/24 09:57:33;;;;;;;3.70;1.30;;;;;;;-145.18;100.00;46586.16;5015461;28;20030;-64
2023/09/24 10:00:04;;;;;;;2.93;1.70;;;;;;;-145.18;100.00;46586.16;5008374;28;20030;-64
2023/09/24 10:02:30;;;;;;;3.37;1.47;;;;;;;-145.18;100.00;46576.41;5014142;28;20060;-64
2023/09/24 10:04:57;;;;;;;9.07;1.57;;;;;;;-145.18;100.00;46601.78;5013381;28;20478;-64
2023/09/24 10:07:23;;;;;;;5.33;1.70;;;;;;;-145.18;100.00;46611.56;5013803;28;20603;-64
2023/09/24 10:09:50;;;;;;;5.57;1.90;;;;;;;-145.18;100.00;46613.50;5014885;28;20026;-64
2023/09/24 10:12:34;;;;;;;4.33;1.50;;;;;;;-145.18;100.00;46599.84;5000922;28;20492;-64
2023/09/24 10:15:26;;;;;;;4.93;2.00;;;;;;;-145.18;100.00;46597.88;5014697;28;20033;-63
2023/09/24 10:18:07;;;;;;;5.13;1.50;;;;;;;-145.18;100.00;46593.97;5006854;28;20113;-64
2023/09/24 10:20:50;;;;;;;7.03;1.43;;;;;;;-145.18;100.00;46611.56;5009210;28;20119;-64
2023/09/24 10:23:42;;;;;;;2.80;1.37;;;;;;;-145.18;100.00;46619.38;5007694;28;20084;-64
2023/09/24 10:26:46;;;;;;;2.53;1.13;;;;;;;-145.18;100.00;46650.63;5001786;28;20148;-64
2023/09/24 10:29:12;;;;;;;5.17;1.10;;;;;;;-145.18;100.00;46633.06;5006009;28;20041;-63
2023/09/24 10:32:13;;;;;;;3.40;1.57;;;;;;;-145.18;100.00;46648.69;5013495;28;20037;-64
2023/09/24 10:34:54;;;;;;;3.47;1.27;;;;;;;-145.18;100.00;46627.19;4972836;28;20031;-69
2023/09/24 10:37:24;;;;;;;5.00;1.53;;;;;;;-145.18;100.00;46662.34;5002601;28;20041;-64
2023/09/24 10:40:04;;;;;;;4.33;1.23;;;;;;;-145.18;100.00;46648.69;5013961;28;20022;-63
2023/09/24 10:42:41;;;;;;;3.23;1.30;;;;;;;-145.18;100.00;46629.13;5014825;28;20029;-63
2023/09/24 10:45:07;;;;;;;3.97;1.60;;;;;;;-145.18;100.00;46660.41;5003284;28;20458;-64
2023/09/24 10:47:38;;;;;;;6.77;1.50;;;;;;;-145.18;100.00;46652.59;5009000;28;20112;-63
2023/09/24 10:50:08;;;;;;;4.03;1.47;;;;;;;-145.18;100.00;46627.19;5010392;28;20486;-64
2023/09/24 10:52:45;;;;;;;5.33;1.83;;;;;;;-145.18;100.00;46658.44;5010691;28;20018;-63
2023/09/24 10:55:11;;;;;;;4.17;1.57;;;;;;;-145.18;100.00;46744.38;5004842;28;20502;-63
2023/09/24 10:57:36;;;;;;;4.13;1.30;;;;;;;-145.18;100.00;46955.34;5012806;28;20025;-63
2023/09/24 11:00:02;;;;;;;8.73;2.30;;;;;;;-145.18;100.00;47041.31;5011237;28;20036;-63
2023/09/24 11:02:28;;;;;;;4.00;1.23;;;;;;;-145.18;100.00;47221.03;5013270;28;20406;-63
2023/09/24 11:04:53;;;;;;;3.53;1.30;;;;;;;-145.18;100.00;47230.81;5014293;28;20018;-64
2023/09/24 11:07:19;;;;;;;4.67;1.40;;;;;;;-145.18;100.00;47201.50;5010877;28;20433;-63
2023/09/24 11:09:49;;;;;;;3.60;1.30;;;;;;;-145.18;100.00;47197.59;5012776;28;20028;-63